sensor_id;sensor_type;location;lat;lon;timestamp;P1;durP1;ratioP1;P2;durP2;ratioP2
2658;SDS011;1339;53.304;10.406;2024-03-02T00:01:36;30.35;;;22.08;;
2658;SDS011;1339;53.304;10.406;2024-03-02T00:04:02;28.17;;;22.20;;
2658;SDS011;1339;53.304;10.406;2024-03-02T00:06:31;27.98;;;22.73;;
2658;SDS011;1339;53.304;10.406;2024-03-02T00:08:58;32.53;;;23.35;;
2658;SDS011;1339;53.304;10.406;2024-03-02T00:11:27;31.77;;;22.60;;
2658;SDS011;1339;53.304;10.406;2024-03-02T00:13:54;28.92;;;21.92;;
2658;SDS011;1339;53.304;10.406;2024-03-02T00:16:21;31.35;;;24.83;;
2658;SDS011;1339;53.304;10.406;2024-03-02T00:18:49;34.45;;;24.80;;
2658;SDS011;1339;53.304;10.406;2024-03-02T00:21:16;30.15;;;22.55;;
2658;SDS011;1339;53.304;10.406;2024-03-02T00:23:46;33.38;;;21.65;;
2658;SDS011;1339;53.304;10.406;2024-03-02T00:26:17;31.73;;;23.77;;
2658;SDS011;1339;53.304;10.406;2024-03-02T00:28:45;30.98;;;25.25;;
2658;SDS011;1339;53.304;10.406;2024-03-02T00:31:15;30.40;;;24.63;;
2658;SDS011;1339;53.304;10.406;2024-03-02T00:33:43;32.22;;;24.40;;
2658;SDS011;1339;53.304;10.406;2024-03-02T00:36:11;28.77;;;22.70;;
2658;SDS011;1339;53.304;10.406;2024-03-02T00:38:45;30.67;;;22.67;;
2658;SDS011;1339;53.304;10.406;2024-03-02T00:41:16;27.23;;;23.00;;
2658;SDS011;1339;53.304;10.406;2024-03-02T00:43:47;32.08;;;22.15;;
2658;SDS011;1339;53.304;10.406;2024-03-02T00:46:17;29.20;;;23.45;;
2658;SDS011;1339;53.304;10.406;2024-03-02T00:48:50;33.28;;;24.40;;
2658;SDS011;1339;53.304;10.406;2024-03-02T00:51:19;38.38;;;23.95;;
2658;SDS011;1339;53.304;10.406;2024-03-02T00:53:46;31.92;;;24.30;;
2658;SDS011;1339;53.304;10.406;2024-03-02T00:56:13;33.97;;;24.85;;
2658;SDS011;1339;53.304;10.406;2024-03-02T00:58:40;31.20;;;24.40;;
2658;SDS011;1339;53.304;10.406;2024-03-02T01:01:09;34.53;;;26.83;;
2658;SDS011;1339;53.304;10.406;2024-03-02T01:03:36;28.88;;;23.85;;
2658;SDS011;1339;53.304;10.406;2024-03-02T01:06:04;31.35;;;25.55;;
2658;SDS011;1339;53.304;10.406;2024-03-02T01:08:32;32.80;;;24.85;;
2658;SDS011;1339;53.304;10.406;2024-03-02T01:10:59;37.03;;;25.75;;
2658;SDS011;1339;53.304;10.406;2024-03-02T01:13:27;35.15;;;24.42;;
2658;SDS011;1339;53.304;10.406;2024-03-02T01:15:54;31.60;;;24.15;;
2658;SDS011;1339;53.304;10.406;2024-03-02T01:18:22;35.33;;;25.17;;
2658;SDS011;1339;53.304;10.406;2024-03-02T01:20:49;33.67;;;25.17;;
2658;SDS011;1339;53.304;10.406;2024-03-02T01:23:17;29.50;;;25.70;;
2658;SDS011;1339;53.304;10.406;2024-03-02T01:25:45;39.08;;;27.40;;
2658;SDS011;1339;53.304;10.406;2024-03-02T01:28:13;32.35;;;23.20;;
2658;SDS011;1339;53.304;10.406;2024-03-02T01:30:40;32.55;;;25.10;;
2658;SDS011;1339;53.304;10.406;2024-03-02T01:33:07;33.72;;;25.48;;
2658;SDS011;1339;53.304;10.406;2024-03-02T01:35:36;33.63;;;26.27;;
2658;SDS011;1339;53.304;10.406;2024-03-02T01:38:03;33.42;;;24.90;;
2658;SDS011;1339;53.304;10.406;2024-03-02T01:40:32;35.15;;;25.88;;
2658;SDS011;1339;53.304;10.406;2024-03-02T01:43:00;34.78;;;25.80;;
2658;SDS011;1339;53.304;10.406;2024-03-02T01:45:27;39.75;;;26.77;;
2658;SDS011;1339;53.304;10.406;2024-03-02T01:47:54;33.20;;;24.92;;
2658;SDS011;1339;53.304;10.406;2024-03-02T01:50:25;33.80;;;25.83;;
2658;SDS011;1339;53.304;10.406;2024-03-02T01:52:55;32.00;;;23.15;;
2658;SDS011;1339;53.304;10.406;2024-03-02T01:55:22;30.75;;;23.52;;
2658;SDS011;1339;53.304;10.406;2024-03-02T01:57:49;29.50;;;24.38;;
2658;SDS011;1339;53.304;10.406;2024-03-02T02:00:17;29.50;;;22.70;;
2658;SDS011;1339;53.304;10.406;2024-03-02T02:02:44;31.67;;;24.10;;
2658;SDS011;1339;53.304;10.406;2024-03-02T02:05:12;32.95;;;25.00;;
2658;SDS011;1339;53.304;10.406;2024-03-02T02:07:40;33.65;;;24.77;;
2658;SDS011;1339;53.304;10.406;2024-03-02T02:10:11;33.83;;;24.73;;
2658;SDS011;1339;53.304;10.406;2024-03-02T02:12:39;35.53;;;26.25;;
2658;SDS011;1339;53.304;10.406;2024-03-02T02:15:21;30.48;;;24.08;;
2658;SDS011;1339;53.304;10.406;2024-03-02T02:17:48;36.33;;;26.70;;
2658;SDS011;1339;53.304;10.406;2024-03-02T02:20:15;41.78;;;26.35;;
2658;SDS011;1339;53.304;10.406;2024-03-02T02:22:54;33.80;;;25.33;;
2658;SDS011;1339;53.304;10.406;2024-03-02T02:25:24;37.75;;;24.27;;
2658;SDS011;1339;53.304;10.406;2024-03-02T02:27:51;39.88;;;28.25;;
2658;SDS011;1339;53.304;10.406;2024-03-02T02:30:19;33.38;;;25.73;;
2658;SDS011;1339;53.304;10.406;2024-03-02T02:32:47;35.50;;;24.40;;
2658;SDS011;1339;53.304;10.406;2024-03-02T02:35:14;37.60;;;24.67;;
2658;SDS011;1339;53.304;10.406;2024-03-02T02:37:41;35.53;;;26.23;;
2658;SDS011;1339;53.304;10.406;2024-03-02T02:40:11;36.15;;;24.83;;
2658;SDS011;1339;53.304;10.406;2024-03-02T02:42:38;30.15;;;23.60;;
2658;SDS011;1339;53.304;10.406;2024-03-02T02:45:06;31.58;;;25.05;;
2658;SDS011;1339;53.304;10.406;2024-03-02T02:47:33;34.72;;;25.38;;
2658;SDS011;1339;53.304;10.406;2024-03-02T02:50:01;33.58;;;26.70;;
2658;SDS011;1339;53.304;10.406;2024-03-02T02:52:32;30.80;;;23.77;;
2658;SDS011;1339;53.304;10.406;2024-03-02T02:55:01;37.65;;;27.63;;
2658;SDS011;1339;53.304;10.406;2024-03-02T02:57:30;35.38;;;26.52;;
2658;SDS011;1339;53.304;10.406;2024-03-02T03:00:00;34.95;;;28.13;;
2658;SDS011;1339;53.304;10.406;2024-03-02T03:02:29;32.08;;;25.25;;
2658;SDS011;1339;53.304;10.406;2024-03-02T03:04:56;30.83;;;24.85;;
2658;SDS011;1339;53.304;10.406;2024-03-02T03:07:23;35.67;;;23.90;;
2658;SDS011;1339;53.304;10.406;2024-03-02T03:09:50;29.30;;;24.33;;
2658;SDS011;1339;53.304;10.406;2024-03-02T03:12:18;30.00;;;24.33;;
2658;SDS011;1339;53.304;10.406;2024-03-02T03:14:46;33.92;;;24.42;;
2658;SDS011;1339;53.304;10.406;2024-03-02T03:17:14;32.30;;;25.15;;
2658;SDS011;1339;53.304;10.406;2024-03-02T03:19:42;33.72;;;24.63;;
2658;SDS011;1339;53.304;10.406;2024-03-02T03:22:09;35.20;;;26.20;;
2658;SDS011;1339;53.304;10.406;2024-03-02T03:24:36;37.70;;;28.73;;
2658;SDS011;1339;53.304;10.406;2024-03-02T03:27:03;32.45;;;24.63;;
2658;SDS011;1339;53.304;10.406;2024-03-02T03:29:31;31.38;;;23.73;;
2658;SDS011;1339;53.304;10.406;2024-03-02T03:31:59;30.98;;;24.15;;
2658;SDS011;1339;53.304;10.406;2024-03-02T03:34:26;31.92;;;25.52;;
2658;SDS011;1339;53.304;10.406;2024-03-02T03:36:54;34.08;;;24.60;;
2658;SDS011;1339;53.304;10.406;2024-03-02T03:39:21;30.77;;;24.75;;
2658;SDS011;1339;53.304;10.406;2024-03-02T03:41:48;33.78;;;24.63;;
2658;SDS011;1339;53.304;10.406;2024-03-02T03:44:16;38.08;;;25.83;;
2658;SDS011;1339;53.304;10.406;2024-03-02T03:46:43;34.17;;;24.73;;
2658;SDS011;1339;53.304;10.406;2024-03-02T03:49:19;32.25;;;25.55;;
2658;SDS011;1339;53.304;10.406;2024-03-02T03:51:46;29.48;;;23.83;;
2658;SDS011;1339;53.304;10.406;2024-03-02T03:54:13;24.67;;;20.88;;
2658;SDS011;1339;53.304;10.406;2024-03-02T03:56:40;28.70;;;23.20;;
2658;SDS011;1339;53.304;10.406;2024-03-02T03:59:07;30.85;;;22.27;;
2658;SDS011;1339;53.304;10.406;2024-03-02T04:01:34;28.17;;;22.20;;
2658;SDS011;1339;53.304;10.406;2024-03-02T04:04:02;28.42;;;22.67;;
2658;SDS011;1339;53.304;10.406;2024-03-02T04:06:31;30.30;;;22.40;;
2658;SDS011;1339;53.304;10.406;2024-03-02T04:08:58;28.52;;;21.63;;
2658;SDS011;1339;53.304;10.406;2024-03-02T04:11:25;33.45;;;24.23;;
2658;SDS011;1339;53.304;10.406;2024-03-02T04:13:52;32.90;;;24.70;;
2658;SDS011;1339;53.304;10.406;2024-03-02T04:16:19;26.88;;;21.52;;
2658;SDS011;1339;53.304;10.406;2024-03-02T04:18:46;31.50;;;24.00;;
2658;SDS011;1339;53.304;10.406;2024-03-02T04:21:13;27.35;;;23.75;;
2658;SDS011;1339;53.304;10.406;2024-03-02T04:23:42;31.20;;;24.92;;
2658;SDS011;1339;53.304;10.406;2024-03-02T04:26:09;27.85;;;21.80;;
2658;SDS011;1339;53.304;10.406;2024-03-02T04:28:36;28.85;;;23.65;;
2658;SDS011;1339;53.304;10.406;2024-03-02T04:31:03;25.92;;;21.10;;
2658;SDS011;1339;53.304;10.406;2024-03-02T04:33:30;29.15;;;22.30;;
2658;SDS011;1339;53.304;10.406;2024-03-02T04:35:57;32.72;;;23.63;;
2658;SDS011;1339;53.304;10.406;2024-03-02T04:38:24;29.63;;;24.20;;
2658;SDS011;1339;53.304;10.406;2024-03-02T04:40:53;27.75;;;20.90;;
2658;SDS011;1339;53.304;10.406;2024-03-02T04:43:20;31.08;;;22.75;;
2658;SDS011;1339;53.304;10.406;2024-03-02T04:45:47;31.08;;;22.40;;
2658;SDS011;1339;53.304;10.406;2024-03-02T04:48:14;29.63;;;22.00;;
2658;SDS011;1339;53.304;10.406;2024-03-02T04:50:41;26.40;;;21.20;;
2658;SDS011;1339;53.304;10.406;2024-03-02T04:53:09;25.35;;;20.88;;
2658;SDS011;1339;53.304;10.406;2024-03-02T04:55:36;27.20;;;22.13;;
2658;SDS011;1339;53.304;10.406;2024-03-02T04:58:45;27.05;;;20.80;;
2658;SDS011;1339;53.304;10.406;2024-03-02T05:01:12;26.35;;;21.33;;
2658;SDS011;1339;53.304;10.406;2024-03-02T05:03:41;24.90;;;22.08;;
2658;SDS011;1339;53.304;10.406;2024-03-02T05:06:08;29.73;;;21.23;;
2658;SDS011;1339;53.304;10.406;2024-03-02T05:08:36;28.25;;;21.35;;
2658;SDS011;1339;53.304;10.406;2024-03-02T05:11:03;26.58;;;20.55;;
2658;SDS011;1339;53.304;10.406;2024-03-02T05:13:45;29.95;;;21.55;;
2658;SDS011;1339;53.304;10.406;2024-03-02T05:16:12;25.88;;;20.27;;
2658;SDS011;1339;53.304;10.406;2024-03-02T05:18:40;28.27;;;20.50;;
2658;SDS011;1339;53.304;10.406;2024-03-02T05:21:07;29.20;;;22.65;;
2658;SDS011;1339;53.304;10.406;2024-03-02T05:23:34;25.65;;;21.90;;
2658;SDS011;1339;53.304;10.406;2024-03-02T05:26:01;24.95;;;20.50;;
2658;SDS011;1339;53.304;10.406;2024-03-02T05:28:29;25.48;;;21.15;;
2658;SDS011;1339;53.304;10.406;2024-03-02T05:30:57;30.73;;;20.70;;
2658;SDS011;1339;53.304;10.406;2024-03-02T05:33:24;27.13;;;21.63;;
2658;SDS011;1339;53.304;10.406;2024-03-02T05:35:51;28.60;;;21.30;;
2658;SDS011;1339;53.304;10.406;2024-03-02T05:38:19;27.67;;;22.23;;
2658;SDS011;1339;53.304;10.406;2024-03-02T05:40:47;30.02;;;21.67;;
2658;SDS011;1339;53.304;10.406;2024-03-02T05:43:14;26.95;;;21.30;;
2658;SDS011;1339;53.304;10.406;2024-03-02T05:45:41;24.45;;;21.42;;
2658;SDS011;1339;53.304;10.406;2024-03-02T05:48:09;24.63;;;21.45;;
2658;SDS011;1339;53.304;10.406;2024-03-02T05:50:37;23.13;;;19.33;;
2658;SDS011;1339;53.304;10.406;2024-03-02T05:53:04;28.80;;;21.27;;
2658;SDS011;1339;53.304;10.406;2024-03-02T05:55:31;24.75;;;20.17;;
2658;SDS011;1339;53.304;10.406;2024-03-02T05:57:58;28.58;;;22.52;;
2658;SDS011;1339;53.304;10.406;2024-03-02T06:00:40;26.00;;;21.65;;
2658;SDS011;1339;53.304;10.406;2024-03-02T06:03:09;29.35;;;20.48;;
2658;SDS011;1339;53.304;10.406;2024-03-02T06:05:37;32.45;;;22.45;;
2658;SDS011;1339;53.304;10.406;2024-03-02T06:08:04;24.88;;;21.17;;
2658;SDS011;1339;53.304;10.406;2024-03-02T06:10:32;25.85;;;20.48;;
2658;SDS011;1339;53.304;10.406;2024-03-02T06:12:59;27.90;;;20.33;;
2658;SDS011;1339;53.304;10.406;2024-03-02T06:15:26;28.67;;;21.60;;
2658;SDS011;1339;53.304;10.406;2024-03-02T06:17:54;26.90;;;20.92;;
2658;SDS011;1339;53.304;10.406;2024-03-02T06:20:22;26.33;;;20.70;;
2658;SDS011;1339;53.304;10.406;2024-03-02T06:22:51;27.33;;;21.30;;
2658;SDS011;1339;53.304;10.406;2024-03-02T06:25:18;29.63;;;23.77;;
2658;SDS011;1339;53.304;10.406;2024-03-02T06:27:46;27.45;;;22.75;;
2658;SDS011;1339;53.304;10.406;2024-03-02T06:30:13;26.33;;;20.75;;
2658;SDS011;1339;53.304;10.406;2024-03-02T06:32:40;29.38;;;21.02;;
2658;SDS011;1339;53.304;10.406;2024-03-02T06:35:08;28.67;;;21.45;;
2658;SDS011;1339;53.304;10.406;2024-03-02T06:37:37;27.00;;;22.02;;
2658;SDS011;1339;53.304;10.406;2024-03-02T06:40:05;29.20;;;21.38;;
2658;SDS011;1339;53.304;10.406;2024-03-02T06:42:32;30.20;;;22.38;;
2658;SDS011;1339;53.304;10.406;2024-03-02T06:45:00;31.30;;;22.38;;
2658;SDS011;1339;53.304;10.406;2024-03-02T06:47:27;26.33;;;21.83;;
2658;SDS011;1339;53.304;10.406;2024-03-02T06:49:54;31.08;;;23.25;;
2658;SDS011;1339;53.304;10.406;2024-03-02T06:52:25;31.90;;;22.50;;
2658;SDS011;1339;53.304;10.406;2024-03-02T06:54:53;29.63;;;21.73;;
2658;SDS011;1339;53.304;10.406;2024-03-02T06:57:21;28.35;;;21.65;;
2658;SDS011;1339;53.304;10.406;2024-03-02T06:59:49;25.23;;;21.17;;
2658;SDS011;1339;53.304;10.406;2024-03-02T07:02:19;30.23;;;25.38;;
2658;SDS011;1339;53.304;10.406;2024-03-02T07:04:46;29.35;;;22.45;;
2658;SDS011;1339;53.304;10.406;2024-03-02T07:07:13;33.33;;;24.27;;
2658;SDS011;1339;53.304;10.406;2024-03-02T07:09:41;28.65;;;21.70;;
2658;SDS011;1339;53.304;10.406;2024-03-02T07:12:09;32.08;;;25.73;;
2658;SDS011;1339;53.304;10.406;2024-03-02T07:14:37;33.53;;;23.30;;
2658;SDS011;1339;53.304;10.406;2024-03-02T07:17:21;28.83;;;22.30;;
2658;SDS011;1339;53.304;10.406;2024-03-02T07:19:49;28.75;;;22.10;;
2658;SDS011;1339;53.304;10.406;2024-03-02T07:22:16;31.60;;;23.92;;
2658;SDS011;1339;53.304;10.406;2024-03-02T07:24:43;29.77;;;23.38;;
2658;SDS011;1339;53.304;10.406;2024-03-02T07:27:12;32.92;;;22.63;;
2658;SDS011;1339;53.304;10.406;2024-03-02T07:29:40;28.17;;;21.63;;
2658;SDS011;1339;53.304;10.406;2024-03-02T07:32:07;26.20;;;21.02;;
2658;SDS011;1339;53.304;10.406;2024-03-02T07:34:34;26.75;;;22.42;;
2658;SDS011;1339;53.304;10.406;2024-03-02T07:37:02;30.85;;;23.85;;
2658;SDS011;1339;53.304;10.406;2024-03-02T07:39:29;27.00;;;22.88;;
2658;SDS011;1339;53.304;10.406;2024-03-02T07:41:57;29.30;;;20.15;;
2658;SDS011;1339;53.304;10.406;2024-03-02T07:44:26;27.75;;;21.95;;
2658;SDS011;1339;53.304;10.406;2024-03-02T07:46:53;30.73;;;21.85;;
2658;SDS011;1339;53.304;10.406;2024-03-02T07:49:20;26.77;;;22.10;;
2658;SDS011;1339;53.304;10.406;2024-03-02T07:51:48;25.52;;;21.25;;
2658;SDS011;1339;53.304;10.406;2024-03-02T07:54:15;27.60;;;21.48;;
2658;SDS011;1339;53.304;10.406;2024-03-02T07:56:42;27.95;;;20.80;;
2658;SDS011;1339;53.304;10.406;2024-03-02T07:59:09;24.35;;;20.52;;
2658;SDS011;1339;53.304;10.406;2024-03-02T08:01:38;27.33;;;20.13;;
2658;SDS011;1339;53.304;10.406;2024-03-02T08:04:05;22.15;;;19.00;;
2658;SDS011;1339;53.304;10.406;2024-03-02T08:06:33;24.80;;;19.38;;
2658;SDS011;1339;53.304;10.406;2024-03-02T08:09:00;28.88;;;19.35;;
2658;SDS011;1339;53.304;10.406;2024-03-02T08:11:30;26.15;;;18.95;;
2658;SDS011;1339;53.304;10.406;2024-03-02T08:13:57;26.55;;;19.85;;
2658;SDS011;1339;53.304;10.406;2024-03-02T08:16:24;26.60;;;20.60;;
2658;SDS011;1339;53.304;10.406;2024-03-02T08:18:53;21.77;;;18.08;;
2658;SDS011;1339;53.304;10.406;2024-03-02T08:21:22;26.63;;;22.00;;
2658;SDS011;1339;53.304;10.406;2024-03-02T08:23:50;23.23;;;20.58;;
2658;SDS011;1339;53.304;10.406;2024-03-02T08:26:17;27.85;;;19.60;;
2658;SDS011;1339;53.304;10.406;2024-03-02T08:28:44;25.45;;;20.98;;
2658;SDS011;1339;53.304;10.406;2024-03-02T08:31:11;24.75;;;19.75;;
2658;SDS011;1339;53.304;10.406;2024-03-02T08:33:38;24.70;;;20.20;;
2658;SDS011;1339;53.304;10.406;2024-03-02T08:36:08;24.00;;;20.98;;
2658;SDS011;1339;53.304;10.406;2024-03-02T08:38:36;25.90;;;19.20;;
2658;SDS011;1339;53.304;10.406;2024-03-02T08:41:03;21.10;;;17.42;;
2658;SDS011;1339;53.304;10.406;2024-03-02T08:43:30;22.60;;;18.50;;
2658;SDS011;1339;53.304;10.406;2024-03-02T08:45:58;25.35;;;19.50;;
2658;SDS011;1339;53.304;10.406;2024-03-02T08:48:25;21.50;;;18.52;;
2658;SDS011;1339;53.304;10.406;2024-03-02T08:50:52;22.73;;;17.63;;
2658;SDS011;1339;53.304;10.406;2024-03-02T08:53:21;24.80;;;20.08;;
2658;SDS011;1339;53.304;10.406;2024-03-02T08:55:48;25.20;;;19.55;;
2658;SDS011;1339;53.304;10.406;2024-03-02T08:58:15;26.27;;;18.80;;
2658;SDS011;1339;53.304;10.406;2024-03-02T09:00:46;24.70;;;18.85;;
2658;SDS011;1339;53.304;10.406;2024-03-02T09:03:13;21.83;;;17.85;;
2658;SDS011;1339;53.304;10.406;2024-03-02T09:05:41;24.25;;;18.33;;
2658;SDS011;1339;53.304;10.406;2024-03-02T09:08:08;23.63;;;18.77;;
2658;SDS011;1339;53.304;10.406;2024-03-02T09:10:37;22.60;;;17.15;;
2658;SDS011;1339;53.304;10.406;2024-03-02T09:13:05;24.23;;;19.38;;
2658;SDS011;1339;53.304;10.406;2024-03-02T09:15:32;22.05;;;18.67;;
2658;SDS011;1339;53.304;10.406;2024-03-02T09:18:02;21.13;;;17.55;;
2658;SDS011;1339;53.304;10.406;2024-03-02T09:20:29;20.65;;;17.40;;
2658;SDS011;1339;53.304;10.406;2024-03-02T09:22:57;21.20;;;17.92;;
2658;SDS011;1339;53.304;10.406;2024-03-02T09:25:24;23.45;;;19.27;;
2658;SDS011;1339;53.304;10.406;2024-03-02T09:27:52;19.08;;;16.45;;
2658;SDS011;1339;53.304;10.406;2024-03-02T09:30:20;25.23;;;18.02;;
2658;SDS011;1339;53.304;10.406;2024-03-02T09:32:47;21.05;;;18.27;;
2658;SDS011;1339;53.304;10.406;2024-03-02T09:35:14;23.08;;;16.88;;
2658;SDS011;1339;53.304;10.406;2024-03-02T09:37:41;17.98;;;14.98;;
2658;SDS011;1339;53.304;10.406;2024-03-02T09:40:09;21.08;;;16.90;;
2658;SDS011;1339;53.304;10.406;2024-03-02T09:42:36;18.58;;;15.10;;
2658;SDS011;1339;53.304;10.406;2024-03-02T09:45:05;19.40;;;15.82;;
2658;SDS011;1339;53.304;10.406;2024-03-02T09:47:33;17.88;;;16.08;;
2658;SDS011;1339;53.304;10.406;2024-03-02T09:50:01;18.90;;;14.07;;
2658;SDS011;1339;53.304;10.406;2024-03-02T09:52:29;17.52;;;15.73;;
2658;SDS011;1339;53.304;10.406;2024-03-02T09:54:57;19.02;;;14.80;;
2658;SDS011;1339;53.304;10.406;2024-03-02T09:57:24;16.25;;;14.55;;
2658;SDS011;1339;53.304;10.406;2024-03-02T09:59:51;15.98;;;13.60;;
2658;SDS011;1339;53.304;10.406;2024-03-02T10:02:20;17.48;;;15.20;;
2658;SDS011;1339;53.304;10.406;2024-03-02T10:04:48;17.23;;;14.83;;
2658;SDS011;1339;53.304;10.406;2024-03-02T10:07:16;20.60;;;13.95;;
2658;SDS011;1339;53.304;10.406;2024-03-02T10:09:44;17.83;;;13.87;;
2658;SDS011;1339;53.304;10.406;2024-03-02T10:12:14;15.60;;;12.35;;
2658;SDS011;1339;53.304;10.406;2024-03-02T10:14:41;17.67;;;14.80;;
2658;SDS011;1339;53.304;10.406;2024-03-02T10:17:09;15.90;;;13.45;;
2658;SDS011;1339;53.304;10.406;2024-03-02T10:19:38;18.47;;;14.80;;
2658;SDS011;1339;53.304;10.406;2024-03-02T10:22:06;15.10;;;13.45;;
2658;SDS011;1339;53.304;10.406;2024-03-02T10:24:36;16.80;;;14.98;;
2658;SDS011;1339;53.304;10.406;2024-03-02T10:27:10;15.23;;;13.55;;
2658;SDS011;1339;53.304;10.406;2024-03-02T10:29:41;19.15;;;14.60;;
2658;SDS011;1339;53.304;10.406;2024-03-02T10:32:09;15.63;;;13.85;;
2658;SDS011;1339;53.304;10.406;2024-03-02T10:34:39;16.17;;;12.43;;
2658;SDS011;1339;53.304;10.406;2024-03-02T10:37:06;14.85;;;13.30;;
2658;SDS011;1339;53.304;10.406;2024-03-02T10:39:34;15.40;;;12.37;;
2658;SDS011;1339;53.304;10.406;2024-03-02T10:42:02;13.88;;;11.95;;
2658;SDS011;1339;53.304;10.406;2024-03-02T10:44:30;14.93;;;13.40;;
2658;SDS011;1339;53.304;10.406;2024-03-02T10:46:59;18.43;;;13.83;;
2658;SDS011;1339;53.304;10.406;2024-03-02T10:49:27;13.13;;;11.37;;
2658;SDS011;1339;53.304;10.406;2024-03-02T10:51:57;16.40;;;12.60;;
2658;SDS011;1339;53.304;10.406;2024-03-02T10:54:24;13.60;;;12.20;;
2658;SDS011;1339;53.304;10.406;2024-03-02T10:56:54;14.20;;;12.70;;
2658;SDS011;1339;53.304;10.406;2024-03-02T10:59:24;16.57;;;13.77;;
2658;SDS011;1339;53.304;10.406;2024-03-02T11:01:55;15.63;;;13.70;;
2658;SDS011;1339;53.304;10.406;2024-03-02T11:04:22;13.00;;;11.17;;
2658;SDS011;1339;53.304;10.406;2024-03-02T11:06:51;14.93;;;12.30;;
2658;SDS011;1339;53.304;10.406;2024-03-02T11:09:20;13.30;;;12.10;;
2658;SDS011;1339;53.304;10.406;2024-03-02T11:11:49;16.43;;;12.63;;
2658;SDS011;1339;53.304;10.406;2024-03-02T11:14:21;14.27;;;12.17;;
2658;SDS011;1339;53.304;10.406;2024-03-02T11:16:50;16.27;;;12.18;;
2658;SDS011;1339;53.304;10.406;2024-03-02T11:19:19;13.97;;;11.70;;
2658;SDS011;1339;53.304;10.406;2024-03-02T11:21:47;15.60;;;11.20;;
2658;SDS011;1339;53.304;10.406;2024-03-02T11:24:34;14.50;;;12.40;;
2658;SDS011;1339;53.304;10.406;2024-03-02T11:27:02;14.77;;;12.47;;
2658;SDS011;1339;53.304;10.406;2024-03-02T11:29:45;13.80;;;12.37;;
2658;SDS011;1339;53.304;10.406;2024-03-02T11:32:21;16.33;;;12.27;;
2658;SDS011;1339;53.304;10.406;2024-03-02T11:34:49;14.60;;;12.40;;
2658;SDS011;1339;53.304;10.406;2024-03-02T11:37:17;14.20;;;12.50;;
2658;SDS011;1339;53.304;10.406;2024-03-02T11:39:46;14.83;;;13.27;;
2658;SDS011;1339;53.304;10.406;2024-03-02T11:42:15;15.20;;;11.70;;
2658;SDS011;1339;53.304;10.406;2024-03-02T11:44:43;13.50;;;11.80;;
2658;SDS011;1339;53.304;10.406;2024-03-02T11:47:12;14.13;;;12.13;;
2658;SDS011;1339;53.304;10.406;2024-03-02T11:49:40;12.70;;;11.20;;
2658;SDS011;1339;53.304;10.406;2024-03-02T11:52:08;14.07;;;12.57;;
2658;SDS011;1339;53.304;10.406;2024-03-02T11:54:37;17.70;;;13.47;;
2658;SDS011;1339;53.304;10.406;2024-03-02T11:57:07;18.30;;;13.30;;
2658;SDS011;1339;53.304;10.406;2024-03-02T11:59:35;16.70;;;13.87;;
2658;SDS011;1339;53.304;10.406;2024-03-02T12:02:02;20.30;;;13.47;;
2658;SDS011;1339;53.304;10.406;2024-03-02T12:04:30;14.80;;;13.07;;
2658;SDS011;1339;53.304;10.406;2024-03-02T12:06:58;16.10;;;12.90;;
2658;SDS011;1339;53.304;10.406;2024-03-02T12:09:26;16.53;;;12.83;;
2658;SDS011;1339;53.304;10.406;2024-03-02T12:12:03;14.33;;;12.83;;
2658;SDS011;1339;53.304;10.406;2024-03-02T12:14:32;16.80;;;12.80;;
2658;SDS011;1339;53.304;10.406;2024-03-02T12:16:59;17.03;;;12.10;;
2658;SDS011;1339;53.304;10.406;2024-03-02T12:19:27;15.47;;;11.80;;
2658;SDS011;1339;53.304;10.406;2024-03-02T12:21:55;16.90;;;11.80;;
2658;SDS011;1339;53.304;10.406;2024-03-02T12:24:22;15.00;;;12.60;;
2658;SDS011;1339;53.304;10.406;2024-03-02T12:26:50;17.50;;;11.93;;
2658;SDS011;1339;53.304;10.406;2024-03-02T12:29:18;13.67;;;12.20;;
2658;SDS011;1339;53.304;10.406;2024-03-02T12:31:47;14.90;;;13.40;;
2658;SDS011;1339;53.304;10.406;2024-03-02T12:34:15;17.30;;;15.40;;
2658;SDS011;1339;53.304;10.406;2024-03-02T12:36:42;12.77;;;11.43;;
2658;SDS011;1339;53.304;10.406;2024-03-02T12:39:12;14.30;;;12.73;;
2658;SDS011;1339;53.304;10.406;2024-03-02T12:41:40;15.23;;;13.57;;
2658;SDS011;1339;53.304;10.406;2024-03-02T12:44:08;14.17;;;12.77;;
2658;SDS011;1339;53.304;10.406;2024-03-02T12:46:35;16.00;;;12.97;;
2658;SDS011;1339;53.304;10.406;2024-03-02T12:49:08;13.13;;;11.80;;
2658;SDS011;1339;53.304;10.406;2024-03-02T12:51:37;14.50;;;13.00;;
2658;SDS011;1339;53.304;10.406;2024-03-02T12:54:05;15.93;;;12.50;;
2658;SDS011;1339;53.304;10.406;2024-03-02T12:56:32;12.80;;;11.50;;
2658;SDS011;1339;53.304;10.406;2024-03-02T12:59:00;12.70;;;11.27;;
2658;SDS011;1339;53.304;10.406;2024-03-02T13:01:27;16.17;;;13.07;;
2658;SDS011;1339;53.304;10.406;2024-03-02T13:03:54;13.97;;;12.67;;
2658;SDS011;1339;53.304;10.406;2024-03-02T13:06:24;17.17;;;13.33;;
2658;SDS011;1339;53.304;10.406;2024-03-02T13:08:52;14.23;;;12.73;;
2658;SDS011;1339;53.304;10.406;2024-03-02T13:11:20;12.73;;;10.60;;
2658;SDS011;1339;53.304;10.406;2024-03-02T13:13:48;13.50;;;11.03;;
2658;SDS011;1339;53.304;10.406;2024-03-02T13:16:15;14.50;;;10.23;;
2658;SDS011;1339;53.304;10.406;2024-03-02T13:18:44;14.20;;;11.10;;
2658;SDS011;1339;53.304;10.406;2024-03-02T13:21:11;12.60;;;11.30;;
2658;SDS011;1339;53.304;10.406;2024-03-02T13:23:40;13.13;;;11.53;;
2658;SDS011;1339;53.304;10.406;2024-03-02T13:26:07;13.80;;;12.20;;
2658;SDS011;1339;53.304;10.406;2024-03-02T13:28:35;14.13;;;11.90;;
2658;SDS011;1339;53.304;10.406;2024-03-02T13:31:04;14.70;;;11.60;;
2658;SDS011;1339;53.304;10.406;2024-03-02T13:33:31;12.13;;;10.93;;
2658;SDS011;1339;53.304;10.406;2024-03-02T13:35:59;12.07;;;10.77;;
2658;SDS011;1339;53.304;10.406;2024-03-02T13:38:26;17.00;;;13.63;;
2658;SDS011;1339;53.304;10.406;2024-03-02T13:40:55;13.50;;;12.10;;
2658;SDS011;1339;53.304;10.406;2024-03-02T13:43:22;12.60;;;10.50;;
2658;SDS011;1339;53.304;10.406;2024-03-02T13:45:49;13.80;;;10.77;;
2658;SDS011;1339;53.304;10.406;2024-03-02T13:48:18;13.90;;;11.10;;
2658;SDS011;1339;53.304;10.406;2024-03-02T13:50:45;13.30;;;10.50;;
2658;SDS011;1339;53.304;10.406;2024-03-02T13:53:13;11.60;;;10.07;;
2658;SDS011;1339;53.304;10.406;2024-03-02T13:55:40;13.67;;;10.50;;
2658;SDS011;1339;53.304;10.406;2024-03-02T13:58:08;10.23;;;8.27;;
2658;SDS011;1339;53.304;10.406;2024-03-02T14:00:35;12.30;;;10.40;;
2658;SDS011;1339;53.304;10.406;2024-03-02T14:03:03;11.10;;;10.00;;
2658;SDS011;1339;53.304;10.406;2024-03-02T14:05:31;12.83;;;10.47;;
2658;SDS011;1339;53.304;10.406;2024-03-02T14:07:58;13.63;;;10.70;;
2658;SDS011;1339;53.304;10.406;2024-03-02T14:10:26;10.90;;;9.40;;
2658;SDS011;1339;53.304;10.406;2024-03-02T14:12:54;14.17;;;10.40;;
2658;SDS011;1339;53.304;10.406;2024-03-02T14:15:25;17.43;;;10.27;;
2658;SDS011;1339;53.304;10.406;2024-03-02T14:17:55;11.87;;;9.97;;
2658;SDS011;1339;53.304;10.406;2024-03-02T14:20:22;9.70;;;8.67;;
2658;SDS011;1339;53.304;10.406;2024-03-02T14:22:49;12.30;;;9.83;;
2658;SDS011;1339;53.304;10.406;2024-03-02T14:25:16;9.37;;;8.40;;
2658;SDS011;1339;53.304;10.406;2024-03-02T14:27:44;10.60;;;9.23;;
2658;SDS011;1339;53.304;10.406;2024-03-02T14:30:12;11.17;;;9.60;;
2658;SDS011;1339;53.304;10.406;2024-03-02T14:32:41;11.70;;;9.20;;
2658;SDS011;1339;53.304;10.406;2024-03-02T14:35:08;11.60;;;8.70;;
2658;SDS011;1339;53.304;10.406;2024-03-02T14:37:36;10.10;;;9.00;;
2658;SDS011;1339;53.304;10.406;2024-03-02T14:40:04;9.67;;;8.67;;
2658;SDS011;1339;53.304;10.406;2024-03-02T14:42:33;9.73;;;8.40;;